Date,TemperatureHighF,TemperatureAvgF,TemperatureLowF,DewpointHighF,DewpointAvgF,DewpointLowF,HumidityHigh,HumidityAvg,HumidityLow,PressureMaxIn,PressureMinIn,WindSpeedMaxMPH,WindSpeedAvgMPH,GustSpeedMaxMPH,PrecipitationSumIn
2013-1-1,16.0,5.0,-3.1,-2.0,-8.1,-14.2,64,54,43,30.16,30.05,9,3,9,0.00
2013-1-2,23.7,18.1,5.7,12.2,5.3,-6.1,66,57,38,30.06,29.96,14,4,14,0.00
2013-1-3,26.2,20.7,9.9,14.7,10.9,-0.8,69,65,61,30.14,29.96,15,6,15,0.00
2013-1-4,30.7,16.7,7.0,15.4,5.3,-4.4,69,60,50,30.11,29.99,16,5,16,0.00
2013-1-5,34.5,24.1,8.4,29.1,16.3,-0.7,83,72,62,30.13,29.78,17,5,17,0.01
2013-1-6,34.7,24.5,9.7,27.8,14.9,0.7,76,66,58,30.20,29.77,21,7,21,0.00
2013-1-7,37.6,24.9,8.1,22.7,13.8,-0.8,73,63,48,30.19,29.95,24,8,24,0.00
2013-1-8,38.1,30.8,15.4,28.5,21.5,8.4,78,68,59,30.03,29.85,21,7,21,0.01
2013-1-9,41.5,33.6,20.1,28.7,21.7,11.3,73,62,47,30.37,29.84,26,8,26,0.00
2013-1-10,41.2,30.6,17.6,30.7,21.5,8.8,81,69,56,30.40,29.79,17,5,17,0.26
2013-1-11,45.7,39.8,35.1,41.4,35.6,30.4,88,85,81,29.80,29.53,19,6,19,0.04
2013-1-12,48.0,35.7,23.7,40.5,26.0,13.1,82,68,56,29.90,29.54,21,11,24,0.00
2013-1-13,23.9,17.2,12.6,14.9,4.3,-1.2,74,56,48,30.10,29.80,21,9,21,0.00
2013-1-14,25.2,14.3,7.2,6.0,0.4,-4.8,64,53,40,30.34,30.10,15,4,15,0.00
2013-1-15,29.7,18.1,7.3,13.0,5.2,-2.5,69,57,42,30.32,30.00,14,4,14,0.00
2013-1-16,33.1,25.8,15.6,25.0,14.1,3.0,73,61,51,29.99,29.67,21,8,21,0.00
2013-1-17,26.6,19.2,12.2,12.6,0.8,-6.5,59,45,30,30.30,29.97,20,6,20,0.00
2013-1-18,42.1,29.5,10.8,30.0,18.4,-1.0,70,63,56,30.31,29.74,27,9,27,0.00
2013-1-19,45.3,35.7,14.5,32.5,24.2,-5.3,75,64,31,29.86,29.57,41,11,42,0.72
2013-1-20,15.4,9.3,5.9,-4.0,-8.8,-10.5,47,43,32,30.22,29.86,40,15,40,0.22
2013-1-21,9.9,1.3,-4.2,-7.1,-16.5,-22.3,59,42,33,30.18,30.02,24,13,24,0.00
2013-1-22,6.8,1.2,-7.8,-15.4,-18.4,-25.0,46,38,32,30.26,30.17,18,7,18,0.00
2013-1-23,17.8,10.7,-0.6,6.4,-3.3,-16.6,68,52,41,30.32,29.99,28,8,28,0.00
2013-1-24,17.4,7.7,-1.1,2.0,-9.0,-17.1,53,45,39,30.55,30.24,17,6,17,0.00
2013-1-25,23.0,17.9,15.6,11.7,5.0,-2.0,67,57,41,30.24,29.87,14,9,14,0.00
2013-1-26,25.9,16.7,5.4,8.1,1.3,-6.2,58,51,38,30.30,30.11,11,5,11,0.00
2013-1-27,32.7,27.6,22.6,28.4,18.1,8.2,84,68,52,30.24,29.78,17,7,17,0.00
2013-1-28,43.2,35.2,32.5,32.0,28.4,25.5,84,76,63,29.87,29.69,16,4,16,0.07
2013-1-29,55.4,43.3,35.1,51.4,39.3,29.7,88,86,75,29.72,29.40,14,6,14,0.98
2013-1-30,35.8,27.8,15.6,31.1,22.1,5.5,85,79,63,29.53,29.25,19,2,19,0.11
2013-1-31,15.6,9.7,0.5,6.0,-3.1,-14.4,69,55,47,30.04,29.53,0,0,0,0.00
2013-2-1,1.6,-2.0,-5.6,-14.2,-17.0,-19.0,51,48,38,30.22,30.04,0,0,0,0.00
2013-2-2,11.5,5.3,-2.2,-2.8,-9.2,-15.0,65,50,41,30.02,29.92,0,0,0,0.00
2013-2-3,20.5,11.4,-0.6,5.5,-1.3,-12.2,67,56,42,29.94,29.83,21,3,21,0.00
2013-2-4,17.1,11.6,2.5,6.5,-0.9,-11.4,69,57,38,29.91,29.84,14,4,14,0.00
2013-2-5,27.7,16.0,-2.2,17.2,5.4,-14.6,75,62,52,30.01,29.68,19,6,19,0.00
2013-2-6,32.5,19.5,-1.8,23.9,8.6,-12.5,71,62,46,30.14,29.97,11,3,11,0.00
2013-2-7,35.4,31.0,20.8,28.9,24.9,15.4,85,78,71,29.99,29.83,27,5,27,0.20
2013-2-8,24.8,21.8,20.5,15.6,13.1,11.0,79,69,57,30.26,29.98,27,12,27,0.00
2013-2-9,28.0,21.5,2.5,18.8,13.2,-6.3,78,70,65,30.29,29.98,21,7,21,0.00
2013-2-10,41.5,36.8,21.7,37.2,31.0,15.6,86,80,72,29.98,29.33,25,11,25,0.53
2013-2-11,38.5,31.1,25.7,30.6,21.5,14.7,74,67,59,29.91,29.34,28,14,28,0.00
2013-2-12,29.7,23.6,18.7,16.1,12.9,8.9,75,63,51,30.00,29.79,17,7,17,0.00
2013-2-13,40.3,27.7,14.5,27.9,18.9,7.5,77,69,59,29.79,29.61,10,3,10,0.00
2013-2-14,35.4,32.9,27.7,28.9,24.3,16.9,77,70,61,29.91,29.50,26,9,26,0.05
2013-2-15,27.5,20.1,11.7,19.4,3.6,-3.8,71,49,34,30.11,29.91,22,9,22,0.00
2013-2-16,18.5,10.7,1.9,-1.1,-6.9,-10.8,57,45,28,30.11,30.05,17,6,17,0.00
2013-2-17,26.2,14.4,-1.5,9.3,-2.7,-13.9,60,46,32,30.12,29.85,13,4,13,0.00
2013-2-18,44.1,33.6,24.1,34.6,23.3,9.5,83,66,53,29.85,29.38,19,8,19,0.11
2013-2-19,26.1,13.3,6.6,19.7,3.2,-8.2,78,64,49,30.08,29.47,0,0,0,0.00
2013-2-20,23.4,12.7,3.9,4.7,-2.2,-9.1,57,50,43,30.29,30.08,0,0,0,0.00
2013-2-21,26.1,18.5,8.6,18.4,8.0,-3.4,74,63,53,30.34,29.99,0,0,0,0.00
2013-2-22,33.6,26.4,23.5,23.3,18.9,15.8,76,73,65,29.99,29.73,14,6,14,0.00
2013-2-23,32.0,25.8,21.7,17.0,14.6,11.6,69,62,53,29.85,29.75,11,6,11,0.01
2013-2-24,39.6,25.3,15.4,21.6,12.6,6.4,67,59,45,30.06,29.86,6,2,6,0.05
2013-2-25,42.8,28.4,13.8,24.0,16.2,5.2,75,61,45,30.09,29.96,4,2,4,0.00
2013-2-26,34.5,32.0,29.3,26.1,22.8,20.3,82,69,57,29.95,29.56,20,10,20,0.00
2013-2-27,32.9,31.1,27.9,26.3,24.6,21.0,81,77,73,29.71,29.54,23,12,23,0.14
2013-2-28,35.8,30.8,23.7,26.2,21.1,12.2,79,67,54,30.06,29.70,21,11,21,0.05
2013-3-1,27.1,23.5,18.0,14.2,12.1,6.1,67,61,53,30.16,30.04,24,11,24,0.00
2013-3-2,27.0,17.2,5.4,8.7,2.8,-5.5,63,53,43,30.16,30.07,14,6,14,0.00
2013-3-3,29.3,14.0,0.9,6.7,-2.0,-10.8,64,50,32,30.07,30.00,6,2,6,0.00
2013-3-4,38.3,28.0,6.8,19.9,14.4,-6.4,68,57,43,30.04,29.95,16,7,16,0.00
2013-3-5,31.3,28.4,24.4,24.1,20.3,16.1,78,71,60,30.00,29.81,24,8,24,0.00
2013-3-6,32.9,29.0,25.3,21.7,19.1,15.1,72,66,60,30.23,30.00,17,9,17,0.08
2013-3-7,39.2,25.2,12.4,18.0,11.2,2.9,69,56,36,30.34,30.22,8,3,8,0.01
2013-3-8,39.6,27.5,11.5,24.9,16.3,3.1,74,63,53,30.38,30.20,15,4,15,0.00
2013-3-9,41.0,35.3,28.8,30.3,25.8,19.2,78,68,59,30.20,29.73,21,7,21,0.22
2013-3-10,44.8,38.6,35.6,39.9,33.8,30.0,86,83,75,29.75,29.56,21,5,21,0.76
2013-3-11,35.6,33.0,29.8,30.5,27.6,20.6,83,80,68,29.68,29.48,14,4,14,0.06
2013-3-12,34.9,28.9,25.0,21.4,18.0,12.7,74,64,47,29.93,29.68,21,6,21,0.01
2013-3-13,33.4,25.2,18.5,15.8,6.7,1.6,69,46,28,30.22,29.93,21,10,21,0.00
2013-3-14,36.5,25.6,13.5,22.1,12.5,0.5,75,57,43,30.22,29.99,10,3,10,0.00
2013-3-15,37.4,30.3,23.2,29.9,22.6,16.2,80,73,66,29.99,29.75,14,2,14,0.05
2013-3-16,31.5,26.3,20.7,21.2,15.3,10.7,75,63,52,30.05,29.74,18,3,18,0.00
2013-3-17,32.9,25.0,16.7,14.3,9.4,1.7,63,51,43,30.18,29.94,15,7,15,0.00
2013-3-18,35.1,28.1,17.1,27.1,18.8,3.0,78,68,52,29.94,29.51,14,5,14,0.15
2013-3-19,17.2,14.9,13.8,3.9,1.7,0.9,59,55,53,29.70,29.65,0,0,0,0.00
2013-3-25,35.2,30.0,23.5,21.7,18.3,13.5,66,61,54,30.02,29.74,20,10,20,0.00
2013-3-26,41.9,34.6,29.8,26.0,21.2,18.7,67,58,49,30.17,30.02,15,7,15,0.00
2013-3-27,42.4,35.5,28.9,23.2,19.7,15.6,64,53,41,30.24,30.17,11,4,11,0.00
2013-3-28,45.5,34.6,24.8,22.8,16.2,11.3,59,48,30,30.26,30.21,8,3,8,0.00
2013-3-29,48.7,35.5,21.6,24.9,18.2,11.9,68,51,30,30.25,30.14,8,2,8,0.00
2013-3-30,52.9,40.7,28.8,36.7,28.7,18.6,77,62,50,30.14,29.73,17,6,17,0.00
2013-3-31,48.4,37.4,32.4,36.6,25.1,13.8,84,62,45,29.83,29.63,25,10,25,0.01
2013-4-1,36.0,30.5,25.5,16.3,10.2,4.4,57,43,29,30.11,29.83,24,12,24,0.00
2013-4-2,40.8,31.3,23.7,13.7,10.1,3.8,53,42,25,30.24,30.10,24,8,24,0.00
2013-4-3,45.7,33.9,18.7,20.5,12.4,6.0,65,43,22,30.39,30.21,12,4,12,0.00
2013-4-4,58.5,43.0,29.3,32.9,24.4,14.7,63,48,34,30.21,29.88,17,8,17,0.00
2013-4-5,50.2,39.1,26.6,25.4,20.7,13.7,71,49,29,30.18,29.97,16,6,16,0.00
2013-4-6,61.5,47.0,34.3,45.4,31.2,12.7,77,55,40,30.09,29.49,29,11,29,0.05
2013-4-7,54.0,44.2,36.7,45.0,32.2,26.0,75,63,45,29.90,29.50,28,9,28,0.01
2013-4-8,51.3,42.8,36.5,41.9,35.2,25.5,84,75,64,29.93,29.56,17,7,17,0.39
2013-4-9,42.3,39.5,36.7,37.5,34.5,29.7,86,82,75,29.97,29.82,27,8,27,0.94
2013-4-10,38.3,36.1,32.5,32.8,29.8,26.7,81,78,74,30.06,29.77,21,9,21,1.29
2013-4-11,37.8,36.2,35.4,32.0,29.2,28.1,80,76,74,29.87,29.59,34,12,34,0.32
2013-4-12,40.8,37.0,34.7,33.0,29.6,23.8,82,75,64,29.73,29.46,13,7,13,0.07
2013-4-13,39.4,35.2,30.2,25.4,23.2,20.2,72,62,53,29.93,29.71,17,9,17,0.00
2013-4-14,53.1,38.9,28.8,42.4,29.8,19.9,76,70,60,29.94,29.54,20,9,20,0.06
2013-4-15,61.0,50.8,41.9,47.9,40.9,33.4,85,70,43,29.89,29.51,18,7,18,0.48
2013-4-16,52.9,43.7,33.6,33.5,29.8,24.9,75,59,42,30.23,29.90,17,6,17,0.00
2013-4-17,43.2,41.1,38.8,38.0,33.6,28.1,83,74,61,30.25,29.81,24,8,24,0.72
2013-4-18,59.9,47.6,38.7,54.2,41.9,31.4,84,80,71,29.83,29.28,28,8,28,0.56
2013-4-19,39.6,35.5,31.3,31.4,24.7,16.9,75,65,52,29.84,29.31,32,15,32,0.05
2013-4-20,46.4,35.0,25.9,20.7,14.2,8.1,64,44,22,30.33,29.84,21,8,21,0.00
2013-4-21,53.1,40.9,30.2,30.3,23.7,18.7,68,51,34,30.43,30.20,17,8,24,0.00
2013-4-22,68.2,53.5,42.1,41.7,34.2,29.9,63,49,33,30.21,29.94,19,9,19,0.00
2013-4-23,53.2,44.1,37.2,44.6,34.9,27.4,80,70,51,29.95,29.82,20,9,20,0.21
2013-4-24,54.1,43.2,32.9,29.3,22.9,16.3,67,47,23,29.97,29.90,21,8,21,0.00
2013-4-25,53.1,43.7,34.2,33.8,28.6,22.9,78,57,32,30.22,29.90,21,8,21,0.09
2013-4-26,70.0,53.7,33.1,46.1,36.0,23.0,69,52,39,30.22,30.07,27,11,27,0.00
2013-4-27,67.6,54.2,45.9,48.2,42.8,38.9,79,66,47,30.17,30.11,16,6,16,0.00
2013-4-28,73.4,63.9,45.1,50.1,44.0,35.9,81,51,32,30.11,29.73,9,3,14,0.00
2013-4-29,69.8,60.6,46.6,55.8,50.7,43.2,90,71,52,29.80,29.67,18,7,18,0.02
2013-4-30,88.3,72.6,60.4,60.7,54.9,50.1,81,57,28,29.85,29.64,27,12,27,0.00
2013-5-1,84.7,69.1,53.2,60.0,52.5,41.2,80,57,38,30.17,29.85,19,6,19,0.00
2013-5-2,55.4,46.9,37.9,46.4,39.2,34.5,91,75,61,30.22,30.12,22,10,22,0.00
2013-5-3,38.3,37.0,36.0,37.0,34.4,33.0,95,90,87,30.15,30.04,17,8,17,0.00
2013-5-4,72.7,59.9,47.1,51.4,46.9,43.4,89,64,42,30.00,29.91,16,4,16,0.00
2013-5-5,75.4,63.5,45.0,51.3,43.7,39.8,83,51,32,30.01,29.95,13,4,13,0.00
2013-5-6,77.9,62.5,43.7,50.1,41.2,34.6,81,50,23,30.02,29.93,11,3,11,0.00
2013-5-7,79.9,65.6,47.7,46.9,41.9,36.9,72,45,22,30.01,29.93,14,3,14,0.00
2013-5-8,82.2,65.7,45.7,54.3,46.6,38.9,86,54,22,29.99,29.91,10,2,10,0.00
2013-5-9,68.4,57.7,44.8,58.1,50.9,42.9,94,79,62,29.92,29.83,17,4,17,0.00
2013-5-10,50.9,44.6,39.7,44.4,41.5,37.7,97,89,77,29.93,29.81,21,8,21,0.00
2013-5-11,54.7,46.6,38.1,49.7,36.6,22.2,99,71,30,29.98,29.73,32,10,32,11.04
2013-5-12,55.2,44.6,36.0,31.4,26.3,19.6,71,50,26,30.05,29.97,24,10,24,0.00
2013-5-13,63.7,48.8,29.1,37.7,32.1,25.3,92,56,24,30.11,29.87,20,4,20,0.00
2013-5-14,86.4,68.9,48.0,59.8,49.9,34.1,65,52,34,29.87,29.50,46,7,46,0.12
2013-5-15,79.2,70.6,56.1,60.1,47.4,38.7,66,45,25,29.81,29.53,20,7,20,0.00
2013-5-16,84.4,65.9,48.0,54.2,44.8,29.4,84,49,27,29.94,29.81,21,5,21,0.00
2013-5-17,59.9,57.6,51.6,48.3,41.4,28.6,85,56,31,30.07,29.92,13,5,13,0.01
2013-5-18,55.8,54.4,53.2,51.2,46.6,44.6,85,75,69,30.01,29.98,9,4,9,0.00
2013-5-20,83.8,74.5,63.3,64.0,60.8,57.9,87,64,46,29.74,29.62,14,6,14,0.01
2013-5-21,80.1,70.0,59.2,65.8,60.1,55.1,88,72,46,29.66,29.58,15,6,15,0.01
2013-5-22,70.2,61.7,55.2,64.2,58.7,54.1,97,90,77,29.73,29.59,11,3,11,0.01
2013-5-23,60.1,52.3,41.7,53.6,44.5,36.7,96,77,45,30.25,29.74,19,8,19,0.01
2013-5-24,64.8,50.1,35.1,43.4,37.3,31.1,87,64,41,30.38,30.24,8,4,8,0.01
2013-5-25,63.1,54.1,44.1,40.3,37.2,31.2,77,54,38,30.31,30.22,9,5,9,0.00
2013-5-26,67.6,56.1,40.5,49.5,44.2,33.5,80,65,42,30.23,30.10,13,4,13,0.01
2013-5-27,56.3,53.2,50.7,52.5,48.5,40.2,98,85,60,30.10,29.84,14,7,14,0.21
2013-5-28,76.3,62.3,51.1,68.8,59.5,50.4,99,91,75,29.84,29.66,8,3,8,0.60
2013-5-29,83.5,71.4,61.7,70.2,63.6,60.3,98,78,61,29.86,29.73,12,4,12,0.00
2013-5-30,86.4,74.6,63.7,71.3,66.1,60.2,93,76,55,29.85,29.68,27,9,27,0.33
2013-5-31,77.7,69.1,62.8,68.3,63.3,60.4,95,82,60,29.77,29.65,17,6,17,0.04
2013-6-1,79.3,70.7,61.9,68.8,62.9,55.1,97,78,55,29.65,29.57,17,4,17,0.06
2013-6-2,64.2,55.3,45.0,56.7,45.6,40.9,87,71,49,29.96,29.65,21,7,21,0.00
2013-6-3,71.4,57.6,40.8,50.3,44.6,38.6,95,65,38,30.04,29.96,9,2,9,0.00
2013-6-4,72.7,60.7,50.4,53.7,47.6,43.3,83,64,43,30.12,30.02,14,3,14,0.06
2013-6-5,67.8,57.5,51.8,54.9,49.7,47.0,85,76,58,30.09,29.91,11,5,11,0.06
2013-6-6,62.1,56.5,52.0,54.1,50.8,46.7,93,81,72,29.92,29.86,9,4,9,0.25
2013-6-7,75.2,61.8,51.6,53.1,47.9,41.9,84,63,34,29.94,29.86,11,3,11,0.01
2013-6-8,58.8,50.0,46.8,53.8,46.8,44.3,93,89,84,29.93,29.87,4,0,4,0.00
2013-6-9,80.6,68.7,55.9,61.4,55.6,48.1,82,64,47,29.97,29.77,15,6,15,0.00
2013-6-10,83.1,71.0,60.3,65.2,62.0,57.0,90,74,51,29.81,29.73,8,2,8,0.00
2013-6-11,85.1,73.1,58.6,67.5,62.8,57.2,96,72,48,29.87,29.76,13,3,13,0.00
2013-6-12,80.2,70.0,61.3,68.8,64.7,59.1,97,84,63,29.88,29.58,34,5,34,1.18
2013-6-13,79.0,67.8,57.9,60.6,57.0,53.0,94,70,48,30.03,29.68,17,6,17,0.01
2013-6-14,79.5,66.5,51.3,60.8,54.0,47.6,93,66,47,30.10,29.96,11,3,11,0.00
2013-6-15,82.4,68.9,55.6,70.5,62.1,47.6,96,80,61,30.04,29.78,17,4,17,0.99
2013-6-16,85.1,74.6,60.4,67.0,60.7,53.4,96,66,35,29.87,29.80,16,4,16,0.00
2013-6-17,87.6,72.3,59.5,63.3,58.1,52.5,87,64,35,29.94,29.83,19,4,19,0.00
2013-6-18,74.5,63.2,53.1,58.1,50.9,44.4,85,66,40,30.06,29.93,14,5,14,0.00
2013-6-19,80.4,65.0,45.7,55.8,49.1,41.8,91,59,35,30.11,30.02,11,3,11,0.00
2013-6-20,88.2,72.3,54.1,65.5,55.7,44.9,73,57,37,30.10,30.00,12,3,12,0.00
2013-6-21,78.6,71.3,65.7,70.1,64.8,56.7,97,80,63,30.06,29.82,30,4,30,0.64
2013-6-22,81.7,72.5,66.9,72.2,68.2,64.2,96,87,71,30.06,29.86,22,5,22,0.83
2013-6-23,88.7,75.1,62.8,75.5,68.1,61.0,97,80,62,29.98,29.82,15,4,15,0.02
2013-6-24,83.3,73.5,65.3,70.6,67.5,64.2,97,82,62,29.97,29.78,13,3,13,0.00
2013-7-15,93.6,80.6,67.8,74.7,70.2,65.3,94,73,48,30.24,30.17,8,3,8,0.00
2013-7-16,93.4,82.5,70.7,76.4,73.2,69.2,95,75,50,30.25,30.18,8,3,8,0.00
2013-7-17,95.0,83.0,72.7,77.7,72.8,70.8,96,74,47,30.25,30.12,10,3,10,0.06
2013-7-18,95.4,83.9,71.8,77.1,72.4,70.0,96,71,46,30.13,29.87,11,4,11,0.00
2013-7-19,92.5,83.0,71.8,73.4,70.0,62.3,86,66,51,29.85,29.70,14,6,14,0.00
2013-7-20,86.5,73.0,61.2,66.0,62.1,56.2,93,71,44,29.93,29.80,9,4,9,0.14
2013-7-21,84.7,67.7,60.8,68.3,60.8,55.6,98,80,54,29.94,29.83,18,4,18,1.07
2013-7-22,88.0,74.4,61.7,70.7,66.2,60.2,99,78,51,29.86,29.59,23,4,23,0.02
2013-7-23,76.1,69.6,58.6,65.2,57.5,52.3,90,67,48,29.97,29.68,17,6,17,0.00
2013-7-24,76.5,64.0,52.2,55.1,52.4,49.2,96,69,44,30.04,29.96,12,2,12,0.00
2013-7-25,81.9,67.6,51.3,64.2,58.4,49.6,97,74,51,30.04,29.92,12,3,12,0.00
2013-7-26,76.8,67.0,60.1,69.9,62.4,54.8,96,86,60,29.93,29.80,11,3,11,0.00
2013-7-27,62.2,56.5,51.6,56.6,49.2,45.3,92,77,60,29.91,29.82,20,7,20,0.00
2013-7-28,69.8,58.7,50.4,54.7,51.1,48.0,95,77,56,29.96,29.79,17,6,17,0.00
2013-7-29,74.8,63.6,51.8,59.6,54.8,48.4,91,74,56,30.14,29.95,11,3,11,0.00
2013-7-30,76.8,66.3,55.4,63.8,58.8,0.6,97,79,10,30.14,30.05,97,4,97,0.00
2013-7-31,81.1,68.1,60.4,67.8,62.9,57.6,96,84,61,30.04,29.91,11,2,11,0.00
2013-8-1,79.2,68.1,59.0,61.6,57.3,53.3,95,71,42,29.95,29.87,19,4,19,0.00
2013-8-2,81.7,70.3,59.4,67.8,60.0,55.3,95,72,43,29.91,29.80,14,4,14,0.00
2013-8-3,79.0,67.0,52.7,60.3,54.2,50.6,95,66,40,30.08,29.91,16,4,16,0.00
2013-8-4,77.5,65.4,52.7,59.6,54.5,48.9,95,70,40,30.18,30.07,8,3,8,0.00
2013-8-5,77.2,64.7,56.1,64.7,59.5,54.4,96,84,62,30.08,29.82,12,3,13,0.00
2013-8-6,86.4,73.9,63.5,71.3,67.0,62.4,98,81,54,29.84,29.75,11,3,11,0.00
2013-8-7,81.7,73.6,62.8,70.9,65.4,59.2,95,77,54,29.93,29.71,16,4,16,0.00
2013-8-8,81.1,69.6,60.4,61.6,57.6,50.6,95,68,44,30.01,29.93,11,3,11,0.00
2013-8-9,82.2,69.1,54.7,65.6,58.0,50.9,89,69,44,30.02,29.93,13,3,13,0.00
2013-8-10,77.9,66.2,53.4,60.2,55.9,51.3,95,72,46,30.11,30.02,11,2,11,0.00
2013-8-11,77.2,63.9,53.2,66.2,60.1,51.9,97,88,65,30.10,29.98,8,2,8,0.00
2013-8-12,82.8,71.3,63.7,68.6,63.2,56.1,98,78,49,29.99,29.86,14,3,14,0.00
2013-8-13,73.4,62.6,50.4,58.1,50.0,45.7,87,65,42,30.13,29.95,17,5,17,0.00
2013-8-14,74.7,60.9,45.7,55.3,49.9,44.6,97,70,44,30.18,30.08,11,2,11,0.00
2013-8-15,76.1,59.5,52.2,59.5,53.9,49.2,93,83,55,30.11,30.08,10,2,10,0.00
2013-8-20,91.2,79.0,69.6,66.3,64.8,63.4,84,64,41,29.99,29.96,4,3,4,0.00
2013-8-21,93.4,79.8,67.3,70.3,67.6,63.8,89,69,45,29.99,29.88,12,4,12,0.00
2013-8-22,81.9,72.5,62.8,71.2,66.8,57.7,96,83,63,30.10,29.95,23,3,23,0.00
2013-8-23,84.6,70.4,55.6,63.4,58.1,52.1,91,68,44,30.15,30.07,10,2,10,0.00
2013-8-24,86.0,71.2,55.4,68.0,62.3,54.3,97,76,51,30.21,30.11,11,3,11,0.40
2013-8-25,91.6,78.1,66.0,71.0,65.9,59.4,89,68,45,30.15,30.04,19,4,19,0.00
2013-8-26,92.3,79.2,69.3,76.3,70.3,64.8,88,75,56,30.10,29.92,14,3,14,0.00
2013-8-27,96.1,83.0,71.4,76.8,73.0,68.5,92,73,50,29.93,29.76,17,3,17,0.00
2013-8-28,88.0,78.1,66.6,74.3,70.1,63.6,92,77,55,30.01,29.80,11,4,11,0.00
2013-8-29,90.1,76.4,62.8,71.3,67.2,61.6,98,76,48,30.05,29.93,11,2,11,0.00
2013-8-30,95.2,78.3,68.4,78.0,70.9,65.5,95,80,53,29.94,29.74,15,4,15,0.01
2013-8-31,83.8,71.2,64.0,67.3,64.3,61.4,95,80,56,29.84,29.75,7,2,7,0.00
2013-9-1,86.0,72.9,61.0,71.3,63.8,56.7,99,74,54,29.80,29.66,13,4,13,0.00
2013-9-2,74.1,64.3,53.1,60.3,56.1,48.6,95,76,51,29.96,29.79,14,4,14,0.00
2013-9-3,76.5,61.0,46.0,56.5,51.6,45.2,98,74,40,30.05,29.95,11,3,11,0.00
2013-9-4,84.6,67.9,52.2,65.3,58.5,49.7,95,75,46,30.09,29.99,12,4,12,0.04
2013-9-5,76.8,66.7,52.3,63.1,55.3,46.6,93,68,47,30.23,30.09,14,5,14,0.00
2013-9-6,89.2,68.8,47.5,66.8,58.0,45.8,96,72,45,30.19,29.93,12,2,12,0.00
2013-9-7,90.7,76.6,66.9,73.7,67.4,62.6,91,75,49,29.95,29.83,17,3,17,0.00
2013-9-8,72.5,68.5,63.5,65.7,62.8,58.8,87,82,73,30.03,29.91,18,6,18,0.00
2013-9-9,93.7,78.5,64.6,76.3,70.1,62.6,97,77,54,29.93,29.74,12,4,12,0.00
2013-9-10,97.7,83.3,69.6,71.1,65.1,60.8,83,57,33,29.91,29.77,21,5,21,0.02
2013-9-11,83.5,73.9,66.6,69.7,65.6,62.6,96,77,52,30.06,29.90,20,4,20,0.28
2013-9-12,77.0,66.5,56.7,64.0,55.8,46.4,98,71,44,30.10,29.93,22,6,22,0.00
2013-9-13,67.6,55.3,44.1,46.7,42.5,35.8,89,65,34,30.17,30.09,14,4,14,0.00
2013-9-14,73.9,57.1,38.5,49.9,45.0,37.9,98,68,37,30.12,29.95,13,3,13,0.00
2013-9-15,62.8,56.6,53.4,57.5,52.9,46.5,98,88,66,30.18,29.94,14,3,14,0.74
2013-9-16,67.6,54.5,41.9,50.2,44.5,39.0,92,71,44,30.34,30.18,14,5,14,0.00
2013-9-17,72.7,56.7,40.6,55.8,49.3,39.4,98,78,52,30.29,30.04,12,4,12,0.01
2013-9-18,81.0,67.8,57.7,67.4,61.7,54.8,96,82,61,30.04,29.85,15,5,15,0.41
2013-9-19,86.7,73.6,67.8,74.4,69.2,63.4,96,87,61,29.86,29.67,27,5,27,0.32
2013-9-20,73.8,66.4,56.8,66.5,60.5,52.8,98,82,62,29.78,29.68,15,6,15,0.01
2013-9-21,59.9,53.4,46.2,53.5,47.3,42.9,94,81,61,29.91,29.78,13,6,13,0.00
2013-9-22,65.7,52.8,41.2,46.0,43.4,39.9,95,73,45,30.03,29.91,8,2,8,0.00
2013-9-23,69.3,54.8,42.6,53.5,47.6,40.7,96,78,54,30.07,29.99,11,4,11,0.00
2013-9-24,72.5,58.6,48.2,55.8,50.3,46.2,97,76,50,30.00,29.92,11,4,11,0.01
2013-9-25,72.7,58.1,44.2,57.7,50.5,42.9,97,78,51,29.95,29.90,9,3,9,0.00
2013-9-26,77.5,62.5,43.9,60.9,52.1,43.1,98,73,45,30.02,29.94,9,4,9,0.00
2013-9-27,81.7,65.0,52.2,57.9,53.7,50.0,98,71,41,30.10,30.00,10,3,10,0.00
2013-9-28,82.4,66.5,54.3,66.7,56.8,50.6,97,73,48,30.00,29.78,16,7,16,0.57
2013-9-29,71.8,57.7,45.9,53.1,47.4,41.1,99,74,33,30.02,29.92,7,2,7,0.02
2013-9-30,74.7,58.0,42.1,52.7,47.1,41.5,99,69,42,29.95,29.78,12,3,12,0.00
2013-10-1,82.4,67.5,49.6,63.7,58.0,45.5,95,74,49,29.92,29.78,22,5,22,0.00
2013-10-2,78.4,62.0,44.8,57.0,47.0,37.6,99,65,25,30.07,29.92,9,2,9,0.00
2013-10-3,76.1,66.3,55.4,69.0,61.7,44.2,97,86,66,29.94,29.79,16,3,16,0.04
2013-10-4,68.7,64.3,60.8,67.0,63.0,59.4,99,95,90,29.98,29.83,12,4,12,0.33
2013-10-5,74.1,66.0,60.8,71.5,64.6,59.7,99,96,81,29.90,29.70,11,4,12,0.73
2013-10-6,63.3,53.9,45.7,60.3,45.2,40.5,95,74,49,29.72,29.62,12,4,12,0.06
2013-10-7,67.5,52.8,42.3,48.9,44.8,40.6,98,77,42,30.03,29.66,18,5,18,0.06
2013-10-8,76.3,56.8,38.5,54.4,46.4,38.2,99,72,38,30.09,30.02,14,2,14,0.00
2013-10-9,75.2,58.7,44.4,54.5,47.2,41.3,96,69,31,30.16,30.07,11,3,11,0.00
2013-10-10,75.9,58.6,42.8,56.2,48.6,41.3,99,73,40,30.11,29.99,13,2,13,0.00
2013-10-11,76.3,62.6,51.3,60.9,53.8,47.4,96,75,50,30.00,29.88,19,5,19,0.00
2013-10-12,70.7,61.8,46.9,62.0,51.7,36.8,93,71,39,30.10,29.85,22,6,22,0.24
2013-10-13,63.0,49.1,36.9,44.5,38.4,33.1,90,69,36,30.34,30.10,14,3,14,0.00
2013-10-14,63.9,47.7,32.9,47.9,39.9,31.1,98,76,49,30.35,30.06,16,3,16,0.00
2013-10-15,60.8,53.9,48.0,59.2,50.0,43.6,99,87,75,30.06,29.67,21,5,21,0.24
2013-10-16,54.9,49.8,47.3,49.9,46.3,43.8,97,88,78,29.87,29.72,15,6,15,0.00
2013-10-17,53.6,45.9,37.6,46.1,42.3,36.3,97,88,63,29.85,29.74,14,2,14,0.11
2013-10-18,50.2,42.8,34.2,44.5,38.5,32.1,99,85,73,29.88,29.73,21,3,21,0.01
2013-10-19,54.5,42.0,34.0,40.3,36.4,31.9,97,82,51,29.84,29.65,27,3,27,0.02
2013-10-20,49.8,40.8,28.6,46.8,37.7,26.8,99,89,68,29.78,29.63,14,3,14,0.12
2013-10-21,46.8,39.6,32.0,43.7,30.3,21.3,91,70,54,29.87,29.67,21,7,21,0.01
2013-10-22,48.0,36.9,25.5,32.7,26.4,18.7,81,66,47,29.89,29.82,12,4,12,0.00
2013-10-23,45.9,35.7,26.4,28.9,24.6,20.1,85,65,39,29.93,29.85,17,5,17,0.00
2013-10-24,44.6,36.0,27.1,29.0,25.1,20.4,82,65,46,30.20,29.93,17,6,17,0.00
2013-10-25,52.2,40.3,24.8,33.0,26.2,17.6,80,59,39,30.27,29.83,23,6,23,0.00
2013-10-26,52.2,46.0,39.2,37.1,29.8,26.8,66,54,42,29.99,29.70,27,9,27,0.00
2013-10-27,56.5,40.5,25.9,33.5,27.9,20.5,85,63,36,29.99,29.83,15,3,15,0.00
2013-10-28,44.2,39.9,33.8,33.5,30.8,27.0,84,70,63,30.34,29.96,17,6,17,0.00
2013-10-29,56.7,44.3,36.7,42.7,36.5,26.2,92,75,57,30.32,30.07,12,5,12,0.00
2013-10-30,55.8,50.6,41.7,52.6,47.9,38.5,96,90,84,30.07,29.69,17,4,17,0.00
2013-10-31,61.9,56.3,43.9,60.7,54.8,40.0,97,94,86,29.69,29.19,22,7,22,0.84
2013-11-1,45.9,43.6,40.6,42.3,40.1,38.2,92,87,83,29.67,29.29,14,7,14,0.07
2013-11-2,44.6,40.3,36.5,40.3,37.4,33.3,96,89,78,30.07,29.67,8,4,8,0.05
2013-11-3,51.8,39.9,27.1,39.9,32.7,23.8,96,77,48,30.22,30.07,12,4,12,0.01
2013-11-4,54.9,50.2,41.9,43.8,41.1,35.2,79,71,58,30.14,29.96,17,6,17,0.00
2013-11-5,55.6,50.9,47.1,50.2,46.4,43.2,95,85,70,30.17,29.80,23,5,23,0.24
2013-11-6,55.0,43.2,30.4,53.1,38.2,22.0,93,83,62,30.07,29.63,18,9,21,0.34
2013-11-7,42.3,34.0,24.4,31.6,25.8,17.7,84,72,60,30.15,30.07,15,4,15,0.00
2013-11-8,45.7,36.5,21.4,33.0,27.9,16.5,86,71,59,30.21,29.74,26,6,26,0.00
2013-11-9,53.4,46.5,39.6,38.9,34.1,23.7,76,62,49,30.44,29.68,32,11,32,0.04
2013-11-10,49.3,42.2,37.0,31.2,28.3,24.2,66,58,42,30.23,29.99,21,7,21,0.00
2013-11-11,43.2,32.6,21.6,32.8,22.1,9.1,86,65,47,30.44,29.97,21,7,21,0.09
2013-11-12,31.1,23.5,17.2,14.8,10.0,7.0,67,56,39,30.61,30.44,18,6,18,0.00
2013-11-13,41.7,29.6,17.1,19.0,13.5,7.4,69,52,35,30.45,29.99,21,8,21,0.00
2013-11-14,48.6,37.4,30.2,30.7,22.9,16.0,75,56,45,29.99,29.80,21,6,21,0.00
2013-11-15,55.4,43.4,31.1,35.9,30.5,22.8,75,61,46,29.86,29.80,11,4,11,0.00
2013-11-16,58.5,52.3,37.0,53.7,48.7,31.1,94,88,79,29.81,29.43,31,15,31,0.05
2013-11-17,59.7,52.5,43.9,57.5,48.9,35.6,94,88,71,29.47,29.10,34,9,34,1.52
2013-11-18,39.7,31.9,24.8,32.1,20.5,16.1,74,63,53,30.17,29.60,29,11,29,0.00
2013-11-19,42.6,30.2,17.4,27.0,20.5,10.2,84,68,47,30.28,30.16,11,4,11,0.00
2013-11-20,43.2,36.2,30.2,32.2,27.4,24.5,88,71,53,30.17,30.00,21,7,21,0.04
2013-11-21,44.4,40.2,35.6,39.8,35.9,32.1,92,85,76,30.16,30.02,12,3,12,0.00
2013-11-22,38.3,31.0,23.5,34.2,22.1,11.5,88,70,53,30.38,30.15,18,7,18,0.04
2013-11-23,24.6,17.7,10.4,12.3,0.5,-7.0,61,47,32,30.61,30.31,24,11,24,0.00
2013-11-24,27.7,17.8,7.9,4.1,-1.0,-4.9,61,44,24,30.60,30.17,18,7,18,0.00
2013-11-25,29.3,25.4,20.5,23.0,15.7,3.8,82,67,43,30.17,29.92,18,7,18,0.00
2013-11-26,32.5,24.8,11.7,23.8,12.1,-3.3,77,59,41,30.12,29.92,21,7,21,0.01
2013-11-27,27.1,17.1,8.1,8.6,2.2,-4.7,65,52,41,30.17,30.10,14,6,14,0.00
2013-11-28,29.7,22.2,13.5,13.6,9.0,2.5,63,57,47,30.40,30.07,8,4,8,0.00
2013-11-29,31.6,23.4,4.6,16.3,10.8,-4.9,69,58,49,30.52,30.29,8,3,8,0.00
2013-11-30,45.1,38.1,26.6,30.6,26.9,15.7,73,64,54,30.29,29.95,13,4,13,0.00
2013-12-1,41.4,32.3,25.2,27.5,22.8,16.8,79,68,52,30.06,29.90,11,2,11,0.00
2013-12-2,41.7,32.4,20.3,31.8,24.8,14.6,85,74,61,29.90,29.67,14,4,14,0.05
2013-12-3,39.9,37.4,34.2,38.3,35.2,30.1,95,92,85,29.68,29.59,14,6,14,0.11
2013-12-4,50.0,42.5,35.1,48.7,40.7,28.8,96,93,76,29.68,29.39,30,6,30,0.05
2013-12-5,35.1,23.1,14.4,29.0,10.6,1.6,79,59,46,30.17,29.55,27,11,27,0.00
2013-12-6,17.8,11.0,6.3,2.3,-4.1,-7.8,62,50,38,30.44,30.14,17,8,17,0.00
2013-12-7,15.6,6.8,-0.2,-3.6,-8.6,-13.5,57,48,34,30.58,30.44,14,5,14,0.00
2013-12-8,22.3,15.7,5.2,16.8,4.9,-9.3,80,63,43,30.50,29.86,14,4,14,0.00
2013-12-9,17.6,9.2,-10.1,10.9,-2.9,-24.8,75,58,43,30.08,29.83,24,7,24,0.00
2013-12-10,18.9,7.6,-12.1,3.3,-6.8,-25.7,63,51,42,30.16,29.83,23,7,23,0.00
2013-12-11,13.1,4.8,-9.0,4.9,-10.9,-28.0,70,48,32,30.42,30.15,17,5,17,0.00
2013-12-12,17.2,7.1,-9.9,2.9,-7.0,-25.4,63,52,42,30.38,30.08,18,5,18,0.00
2013-12-13,27.0,17.8,7.3,12.9,7.2,-3.2,67,62,52,30.12,30.05,15,5,15,0.00
2013-12-14,27.0,21.6,17.2,18.7,14.1,8.9,76,72,64,30.09,29.83,17,6,17,0.00
2013-12-15,19.9,9.9,1.2,13.6,-5.5,-17.0,76,49,36,30.04,29.82,22,10,22,0.00
2013-12-16,14.9,6.1,-7.6,5.3,-7.2,-21.9,70,54,41,30.06,29.90,11,3,11,0.00
2013-12-17,35.6,24.4,13.5,22.2,13.6,5.6,79,64,52,29.96,29.80,17,7,20,0.08
2013-12-18,31.3,21.7,4.6,19.5,8.4,-6.4,67,56,44,30.01,29.68,23,6,23,0.00
2013-12-19,30.9,26.0,17.4,26.5,18.8,9.9,84,74,58,29.90,29.70,14,4,14,0.00
2013-12-20,24.6,23.3,22.1,18.7,17.5,16.6,83,78,76,29.81,29.72,15,7,15,0.00
2013-12-21,23.5,22.8,22.6,18.9,18.4,18.3,83,83,82,29.79,29.71,9,3,9,0.00
2013-12-22,26.8,23.3,18.7,21.4,17.4,11.8,83,78,71,29.96,29.57,19,8,19,0.00
2013-12-23,18.7,10.6,-1.5,12.1,1.0,-13.8,75,65,53,30.26,29.97,10,5,10,0.00
2013-12-24,11.1,1.0,-14.6,0.1,-11.6,-26.5,66,55,42,30.38,30.14,9,3,9,0.00
2013-12-25,22.8,19.0,10.0,16.1,11.4,0.9,77,72,65,30.12,29.92,14,6,14,0.00
2013-12-26,23.7,18.9,5.5,16.6,9.6,-4.7,76,66,56,30.09,29.93,11,3,11,0.00
2013-12-27,37.0,25.2,9.1,25.3,16.8,1.0,78,70,62,30.10,29.87,16,5,16,0.04
2013-12-28,42.4,37.1,18.9,30.0,27.0,11.3,80,67,60,29.94,29.68,15,7,15,0.05
2013-12-29,37.2,18.8,-5.1,27.0,7.4,-20.0,83,61,45,30.13,29.65,22,10,22,0.00
2013-12-30,1.4,-4.6,-16.4,-11.6,-21.4,-31.2,55,43,31,30.23,30.08,10,3,10,0.00
2013-12-31,7.0,3.0,-2.7,-3.9,-9.8,-15.1,63,54,46,30.25,30.07,12,4,12,0.00
2014-1-1,10.2,4.7,-0.4,-5.8,-11.1,-18.2,53,47,41,30.27,30.18,17,7,17,0.00
2014-1-2,11.7,5.1,-4.9,-4.4,-8.9,-19.7,62,51,42,30.32,30.15,20,8,20,0.00